sensor_id;sensor_type;location;lat;lon;timestamp;P1;durP1;ratioP1;P2;durP2;ratioP2
86611;SDS011;77290;50.078;14.470;2024-03-23T00:54:52;13.02;;;9.02;;
86611;SDS011;77290;50.078;14.470;2024-03-23T00:57:20;15.10;;;10.05;;
86611;SDS011;77290;50.078;14.470;2024-03-23T00:59:46;13.32;;;9.57;;
86611;SDS011;77290;50.078;14.470;2024-03-23T01:02:11;13.73;;;9.52;;
86611;SDS011;77290;50.078;14.470;2024-03-23T01:04:36;14.45;;;9.45;;
86611;SDS011;77290;50.078;14.470;2024-03-23T01:07:02;12.05;;;8.52;;
86611;SDS011;77290;50.078;14.470;2024-03-23T01:09:27;12.80;;;8.60;;
86611;SDS011;77290;50.078;14.470;2024-03-23T01:11:53;12.93;;;9.48;;
86611;SDS011;77290;50.078;14.470;2024-03-23T01:14:18;11.70;;;8.32;;
86611;SDS011;77290;50.078;14.470;2024-03-23T01:16:47;12.95;;;8.38;;
86611;SDS011;77290;50.078;14.470;2024-03-23T01:19:14;15.75;;;8.35;;
86611;SDS011;77290;50.078;14.470;2024-03-23T01:21:40;10.77;;;7.68;;
86611;SDS011;77290;50.078;14.470;2024-03-23T01:24:06;11.02;;;8.02;;
86611;SDS011;77290;50.078;14.470;2024-03-23T01:26:36;12.35;;;8.40;;
86611;SDS011;77290;50.078;14.470;2024-03-23T01:29:04;9.75;;;7.70;;
86611;SDS011;77290;50.078;14.470;2024-03-23T01:31:32;8.95;;;6.65;;
86611;SDS011;77290;50.078;14.470;2024-03-23T01:34:00;11.90;;;8.18;;
86611;SDS011;77290;50.078;14.470;2024-03-23T01:36:25;10.15;;;7.65;;
86611;SDS011;77290;50.078;14.470;2024-03-23T01:38:51;12.93;;;8.40;;
86611;SDS011;77290;50.078;14.470;2024-03-23T01:41:17;13.93;;;9.07;;
86611;SDS011;77290;50.078;14.470;2024-03-23T01:43:43;9.98;;;7.05;;
86611;SDS011;77290;50.078;14.470;2024-03-23T01:46:08;10.57;;;7.03;;
86611;SDS011;77290;50.078;14.470;2024-03-23T01:48:36;10.35;;;7.68;;
86611;SDS011;77290;50.078;14.470;2024-03-23T01:51:01;10.07;;;7.28;;
86611;SDS011;77290;50.078;14.470;2024-03-23T01:53:29;11.57;;;7.70;;
86611;SDS011;77290;50.078;14.470;2024-03-23T01:55:57;11.80;;;8.27;;
86611;SDS011;77290;50.078;14.470;2024-03-23T01:58:22;12.82;;;8.18;;
86611;SDS011;77290;50.078;14.470;2024-03-23T02:00:50;15.52;;;8.25;;
86611;SDS011;77290;50.078;14.470;2024-03-23T02:03:26;13.00;;;8.25;;
86611;SDS011;77290;50.078;14.470;2024-03-23T02:05:55;10.95;;;7.88;;
86611;SDS011;77290;50.078;14.470;2024-03-23T02:08:23;10.10;;;7.55;;
86611;SDS011;77290;50.078;14.470;2024-03-23T02:10:51;10.63;;;7.25;;
86611;SDS011;77290;50.078;14.470;2024-03-23T02:13:19;13.45;;;8.10;;
86611;SDS011;77290;50.078;14.470;2024-03-23T02:15:47;11.65;;;8.15;;
86611;SDS011;77290;50.078;14.470;2024-03-23T02:18:13;11.25;;;7.60;;
86611;SDS011;77290;50.078;14.470;2024-03-23T02:20:38;13.00;;;8.40;;
86611;SDS011;77290;50.078;14.470;2024-03-23T02:23:04;9.95;;;7.05;;
86611;SDS011;77290;50.078;14.470;2024-03-23T02:25:33;11.48;;;7.45;;
86611;SDS011;77290;50.078;14.470;2024-03-23T02:28:03;11.57;;;7.00;;
86611;SDS011;77290;50.078;14.470;2024-03-23T02:30:31;10.73;;;6.80;;
86611;SDS011;77290;50.078;14.470;2024-03-23T02:32:56;10.90;;;7.78;;
86611;SDS011;77290;50.078;14.470;2024-03-23T02:35:22;13.13;;;7.47;;
86611;SDS011;77290;50.078;14.470;2024-03-23T02:37:49;12.93;;;7.68;;
86611;SDS011;77290;50.078;14.470;2024-03-23T02:40:15;10.80;;;7.65;;
86611;SDS011;77290;50.078;14.470;2024-03-23T02:42:41;11.35;;;7.28;;
86611;SDS011;77290;50.078;14.470;2024-03-23T02:45:07;11.82;;;7.93;;
86611;SDS011;77290;50.078;14.470;2024-03-23T02:47:35;11.23;;;6.90;;
86611;SDS011;77290;50.078;14.470;2024-03-23T02:50:02;10.10;;;6.97;;
86611;SDS011;77290;50.078;14.470;2024-03-23T02:52:29;8.50;;;6.28;;
86611;SDS011;77290;50.078;14.470;2024-03-23T02:54:55;9.80;;;7.03;;
86611;SDS011;77290;50.078;14.470;2024-03-23T02:57:22;12.98;;;8.00;;
86611;SDS011;77290;50.078;14.470;2024-03-23T02:59:50;9.93;;;7.00;;
86611;SDS011;77290;50.078;14.470;2024-03-23T03:02:19;10.55;;;6.97;;
86611;SDS011;77290;50.078;14.470;2024-03-23T03:04:47;10.15;;;7.00;;
86611;SDS011;77290;50.078;14.470;2024-03-23T03:07:13;8.88;;;6.38;;
86611;SDS011;77290;50.078;14.470;2024-03-23T03:09:41;12.63;;;6.95;;
86611;SDS011;77290;50.078;14.470;2024-03-23T03:12:06;9.40;;;7.43;;
86611;SDS011;77290;50.078;14.470;2024-03-23T03:14:32;11.75;;;6.93;;
86611;SDS011;77290;50.078;14.470;2024-03-23T03:17:05;10.90;;;6.60;;
86611;SDS011;77290;50.078;14.470;2024-03-23T03:19:30;11.88;;;7.22;;
86611;SDS011;77290;50.078;14.470;2024-03-23T03:21:58;10.10;;;6.40;;
86611;SDS011;77290;50.078;14.470;2024-03-23T03:24:23;11.70;;;7.40;;
86611;SDS011;77290;50.078;14.470;2024-03-23T03:26:49;11.52;;;7.47;;
86611;SDS011;77290;50.078;14.470;2024-03-23T03:29:15;11.73;;;7.50;;
86611;SDS011;77290;50.078;14.470;2024-03-23T03:31:42;12.98;;;8.05;;
86611;SDS011;77290;50.078;14.470;2024-03-23T03:34:08;11.00;;;8.15;;
86611;SDS011;77290;50.078;14.470;2024-03-23T03:36:33;8.95;;;6.32;;
86611;SDS011;77290;50.078;14.470;2024-03-23T03:38:59;11.75;;;8.65;;
86611;SDS011;77290;50.078;14.470;2024-03-23T03:41:24;11.10;;;7.78;;
86611;SDS011;77290;50.078;14.470;2024-03-23T03:43:52;9.85;;;7.55;;
86611;SDS011;77290;50.078;14.470;2024-03-23T03:46:17;9.77;;;6.68;;
86611;SDS011;77290;50.078;14.470;2024-03-23T03:48:43;10.65;;;7.20;;
86611;SDS011;77290;50.078;14.470;2024-03-23T03:51:12;9.65;;;7.40;;
86611;SDS011;77290;50.078;14.470;2024-03-23T03:53:38;11.57;;;7.82;;
86611;SDS011;77290;50.078;14.470;2024-03-23T03:56:03;12.18;;;7.80;;
86611;SDS011;77290;50.078;14.470;2024-03-23T03:58:29;10.70;;;7.50;;
86611;SDS011;77290;50.078;14.470;2024-03-23T04:00:57;10.15;;;7.38;;
86611;SDS011;77290;50.078;14.470;2024-03-23T04:03:28;10.80;;;7.93;;
86611;SDS011;77290;50.078;14.470;2024-03-23T04:05:53;13.10;;;8.20;;
86611;SDS011;77290;50.078;14.470;2024-03-23T04:08:19;11.20;;;7.22;;
86611;SDS011;77290;50.078;14.470;2024-03-23T04:10:46;10.77;;;8.23;;
86611;SDS011;77290;50.078;14.470;2024-03-23T04:13:14;9.70;;;7.28;;
86611;SDS011;77290;50.078;14.470;2024-03-23T04:15:42;10.70;;;6.85;;
86611;SDS011;77290;50.078;14.470;2024-03-23T04:18:08;10.00;;;7.20;;
86611;SDS011;77290;50.078;14.470;2024-03-23T04:20:35;9.73;;;7.25;;
86611;SDS011;77290;50.078;14.470;2024-03-23T04:23:03;12.48;;;7.25;;
86611;SDS011;77290;50.078;14.470;2024-03-23T04:25:29;8.88;;;6.55;;
86611;SDS011;77290;50.078;14.470;2024-03-23T04:27:54;15.55;;;8.70;;
86611;SDS011;77290;50.078;14.470;2024-03-23T04:30:19;10.05;;;7.80;;
86611;SDS011;77290;50.078;14.470;2024-03-23T04:32:46;11.65;;;7.85;;
86611;SDS011;77290;50.078;14.470;2024-03-23T04:35:12;11.55;;;6.70;;
86611;SDS011;77290;50.078;14.470;2024-03-23T04:37:41;12.15;;;7.00;;
86611;SDS011;77290;50.078;14.470;2024-03-23T04:40:06;9.85;;;7.07;;
86611;SDS011;77290;50.078;14.470;2024-03-23T04:42:39;10.77;;;6.72;;
86611;SDS011;77290;50.078;14.470;2024-03-23T04:45:04;9.27;;;7.68;;
86611;SDS011;77290;50.078;14.470;2024-03-23T04:47:31;10.10;;;6.78;;
86611;SDS011;77290;50.078;14.470;2024-03-23T04:49:59;10.52;;;7.07;;
86611;SDS011;77290;50.078;14.470;2024-03-23T04:52:28;12.65;;;7.43;;
86611;SDS011;77290;50.078;14.470;2024-03-23T04:54:56;10.07;;;6.78;;
86611;SDS011;77290;50.078;14.470;2024-03-23T04:57:22;11.15;;;7.13;;
86611;SDS011;77290;50.078;14.470;2024-03-23T04:59:49;12.48;;;8.13;;
86611;SDS011;77290;50.078;14.470;2024-03-23T05:02:17;10.63;;;7.85;;
86611;SDS011;77290;50.078;14.470;2024-03-23T05:04:43;11.55;;;8.20;;
86611;SDS011;77290;50.078;14.470;2024-03-23T05:07:08;14.00;;;8.77;;
86611;SDS011;77290;50.078;14.470;2024-03-23T05:09:34;13.05;;;8.77;;
86611;SDS011;77290;50.078;14.470;2024-03-23T05:12:01;13.38;;;8.35;;
86611;SDS011;77290;50.078;14.470;2024-03-23T05:14:30;12.65;;;8.40;;
86611;SDS011;77290;50.078;14.470;2024-03-23T05:16:58;8.82;;;7.35;;
86611;SDS011;77290;50.078;14.470;2024-03-23T05:19:23;10.93;;;6.88;;
86611;SDS011;77290;50.078;14.470;2024-03-23T05:21:54;13.05;;;7.80;;
86611;SDS011;77290;50.078;14.470;2024-03-23T05:24:19;9.30;;;6.85;;
86611;SDS011;77290;50.078;14.470;2024-03-23T05:26:44;11.05;;;7.60;;
86611;SDS011;77290;50.078;14.470;2024-03-23T05:29:12;11.02;;;7.38;;
86611;SDS011;77290;50.078;14.470;2024-03-23T05:31:38;13.15;;;7.53;;
86611;SDS011;77290;50.078;14.470;2024-03-23T05:34:06;11.63;;;7.95;;
86611;SDS011;77290;50.078;14.470;2024-03-23T05:36:34;12.00;;;8.48;;
86611;SDS011;77290;50.078;14.470;2024-03-23T05:39:03;10.57;;;7.47;;
86611;SDS011;77290;50.078;14.470;2024-03-23T05:41:28;12.65;;;7.78;;
86611;SDS011;77290;50.078;14.470;2024-03-23T05:43:54;11.35;;;8.07;;
86611;SDS011;77290;50.078;14.470;2024-03-23T05:46:21;9.13;;;7.05;;
86611;SDS011;77290;50.078;14.470;2024-03-23T05:48:47;12.63;;;7.68;;
86611;SDS011;77290;50.078;14.470;2024-03-23T05:51:12;10.15;;;7.22;;
86611;SDS011;77290;50.078;14.470;2024-03-23T05:53:38;9.93;;;8.05;;
86611;SDS011;77290;50.078;14.470;2024-03-23T05:56:06;12.98;;;8.15;;
86611;SDS011;77290;50.078;14.470;2024-03-23T05:58:34;12.40;;;8.27;;
86611;SDS011;77290;50.078;14.470;2024-03-23T06:01:00;12.23;;;8.32;;
86611;SDS011;77290;50.078;14.470;2024-03-23T06:03:27;12.98;;;7.82;;
86611;SDS011;77290;50.078;14.470;2024-03-23T06:05:53;11.65;;;8.27;;
86611;SDS011;77290;50.078;14.470;2024-03-23T06:08:19;12.35;;;9.05;;
86611;SDS011;77290;50.078;14.470;2024-03-23T06:10:46;12.68;;;8.45;;
86611;SDS011;77290;50.078;14.470;2024-03-23T06:13:12;11.10;;;8.07;;
86611;SDS011;77290;50.078;14.470;2024-03-23T06:15:40;9.80;;;7.65;;
86611;SDS011;77290;50.078;14.470;2024-03-23T06:18:09;13.13;;;8.68;;
86611;SDS011;77290;50.078;14.470;2024-03-23T06:20:34;10.18;;;7.30;;
86611;SDS011;77290;50.078;14.470;2024-03-23T06:23:03;9.20;;;7.22;;
86611;SDS011;77290;50.078;14.470;2024-03-23T06:25:31;12.65;;;8.65;;
86611;SDS011;77290;50.078;14.470;2024-03-23T06:27:56;14.13;;;8.90;;
86611;SDS011;77290;50.078;14.470;2024-03-23T06:30:24;11.32;;;7.45;;
86611;SDS011;77290;50.078;14.470;2024-03-23T06:32:52;10.65;;;7.78;;
86611;SDS011;77290;50.078;14.470;2024-03-23T06:35:21;10.45;;;7.65;;
86611;SDS011;77290;50.078;14.470;2024-03-23T06:37:46;12.40;;;8.27;;
86611;SDS011;77290;50.078;14.470;2024-03-23T06:40:12;13.68;;;8.10;;
86611;SDS011;77290;50.078;14.470;2024-03-23T06:42:37;9.82;;;7.43;;
86611;SDS011;77290;50.078;14.470;2024-03-23T06:45:03;11.85;;;8.20;;
86611;SDS011;77290;50.078;14.470;2024-03-23T06:47:31;10.40;;;8.07;;
86611;SDS011;77290;50.078;14.470;2024-03-23T06:49:57;13.10;;;8.82;;
86611;SDS011;77290;50.078;14.470;2024-03-23T06:52:22;11.30;;;8.30;;
86611;SDS011;77290;50.078;14.470;2024-03-23T06:54:56;10.48;;;7.18;;
86611;SDS011;77290;50.078;14.470;2024-03-23T06:57:25;10.98;;;7.47;;
86611;SDS011;77290;50.078;14.470;2024-03-23T06:59:51;12.10;;;7.63;;
86611;SDS011;77290;50.078;14.470;2024-03-23T07:02:18;8.85;;;7.18;;
86611;SDS011;77290;50.078;14.470;2024-03-23T07:04:48;8.88;;;6.47;;
86611;SDS011;77290;50.078;14.470;2024-03-23T07:07:14;8.80;;;6.97;;
86611;SDS011;77290;50.078;14.470;2024-03-23T07:09:39;12.77;;;7.68;;
86611;SDS011;77290;50.078;14.470;2024-03-23T07:12:07;9.40;;;6.97;;
86611;SDS011;77290;50.078;14.470;2024-03-23T07:14:33;7.65;;;5.82;;
86611;SDS011;77290;50.078;14.470;2024-03-23T07:16:58;9.93;;;7.00;;
86611;SDS011;77290;50.078;14.470;2024-03-23T07:19:26;11.70;;;8.20;;
86611;SDS011;77290;50.078;14.470;2024-03-23T07:21:51;9.68;;;7.10;;
86611;SDS011;77290;50.078;14.470;2024-03-23T07:24:20;9.82;;;7.53;;
86611;SDS011;77290;50.078;14.470;2024-03-23T07:26:45;11.50;;;7.30;;
86611;SDS011;77290;50.078;14.470;2024-03-23T07:29:11;9.55;;;6.85;;
86611;SDS011;77290;50.078;14.470;2024-03-23T07:31:36;11.48;;;7.05;;
86611;SDS011;77290;50.078;14.470;2024-03-23T07:34:04;10.13;;;7.75;;
86611;SDS011;77290;50.078;14.470;2024-03-23T07:36:30;9.95;;;7.05;;
86611;SDS011;77290;50.078;14.470;2024-03-23T07:38:56;9.57;;;7.18;;
86611;SDS011;77290;50.078;14.470;2024-03-23T07:41:21;9.02;;;7.43;;
86611;SDS011;77290;50.078;14.470;2024-03-23T07:43:47;8.98;;;7.15;;
86611;SDS011;77290;50.078;14.470;2024-03-23T07:46:14;10.50;;;7.32;;
86611;SDS011;77290;50.078;14.470;2024-03-23T07:48:41;8.98;;;6.82;;
86611;SDS011;77290;50.078;14.470;2024-03-23T07:51:08;11.27;;;7.85;;
86611;SDS011;77290;50.078;14.470;2024-03-23T07:53:35;10.15;;;6.55;;
86611;SDS011;77290;50.078;14.470;2024-03-23T07:56:03;9.52;;;7.22;;
86611;SDS011;77290;50.078;14.470;2024-03-23T07:58:36;7.50;;;5.90;;
86611;SDS011;77290;50.078;14.470;2024-03-23T08:01:05;8.88;;;6.95;;
86611;SDS011;77290;50.078;14.470;2024-03-23T08:03:35;9.38;;;6.63;;
86611;SDS011;77290;50.078;14.470;2024-03-23T08:06:11;9.18;;;6.70;;
86611;SDS011;77290;50.078;14.470;2024-03-23T08:08:38;8.75;;;7.38;;
86611;SDS011;77290;50.078;14.470;2024-03-23T08:11:10;9.02;;;6.95;;
86611;SDS011;77290;50.078;14.470;2024-03-23T08:13:41;7.93;;;6.18;;
86611;SDS011;77290;50.078;14.470;2024-03-23T08:16:10;8.35;;;5.93;;
86611;SDS011;77290;50.078;14.470;2024-03-23T08:18:36;8.13;;;6.47;;
86611;SDS011;77290;50.078;14.470;2024-03-23T08:21:02;9.45;;;6.75;;
86611;SDS011;77290;50.078;14.470;2024-03-23T08:23:32;7.45;;;5.72;;
86611;SDS011;77290;50.078;14.470;2024-03-23T08:26:04;7.65;;;6.05;;
86611;SDS011;77290;50.078;14.470;2024-03-23T08:28:30;7.70;;;6.43;;
86611;SDS011;77290;50.078;14.470;2024-03-23T08:30:56;9.23;;;6.57;;
86611;SDS011;77290;50.078;14.470;2024-03-23T08:33:22;8.88;;;6.57;;
86611;SDS011;77290;50.078;14.470;2024-03-23T08:38:29;7.25;;;5.80;;
86611;SDS011;77290;50.078;14.470;2024-03-23T08:43:29;7.35;;;5.82;;
86611;SDS011;77290;50.078;14.470;2024-03-23T08:46:05;6.00;;;5.22;;
86611;SDS011;77290;50.078;14.470;2024-03-23T08:48:35;12.73;;;8.30;;
86611;SDS011;77290;50.078;14.470;2024-03-23T08:51:13;6.88;;;5.47;;
86611;SDS011;77290;50.078;14.470;2024-03-23T08:53:40;8.85;;;5.97;;
86611;SDS011;77290;50.078;14.470;2024-03-23T08:56:07;15.07;;;9.02;;
86611;SDS011;77290;50.078;14.470;2024-03-23T08:58:33;5.22;;;4.18;;
86611;SDS011;77290;50.078;14.470;2024-03-23T09:01:04;5.88;;;4.47;;
86611;SDS011;77290;50.078;14.470;2024-03-23T09:03:33;5.25;;;4.15;;
86611;SDS011;77290;50.078;14.470;2024-03-23T09:06:11;5.50;;;4.05;;
86611;SDS011;77290;50.078;14.470;2024-03-23T09:08:41;5.40;;;4.65;;
86611;SDS011;77290;50.078;14.470;2024-03-23T09:11:07;5.00;;;3.88;;
86611;SDS011;77290;50.078;14.470;2024-03-23T09:13:34;5.03;;;3.80;;
86611;SDS011;77290;50.078;14.470;2024-03-23T09:16:01;9.05;;;4.40;;
86611;SDS011;77290;50.078;14.470;2024-03-23T09:18:27;6.50;;;4.22;;
86611;SDS011;77290;50.078;14.470;2024-03-23T09:20:56;5.97;;;5.13;;
86611;SDS011;77290;50.078;14.470;2024-03-23T09:23:22;9.05;;;5.25;;
86611;SDS011;77290;50.078;14.470;2024-03-23T09:25:47;9.98;;;5.25;;
86611;SDS011;77290;50.078;14.470;2024-03-23T09:28:15;5.45;;;4.45;;
86611;SDS011;77290;50.078;14.470;2024-03-23T09:30:42;8.80;;;4.80;;
86611;SDS011;77290;50.078;14.470;2024-03-23T09:33:08;6.95;;;4.43;;
86611;SDS011;77290;50.078;14.470;2024-03-23T09:35:38;5.78;;;4.70;;
86611;SDS011;77290;50.078;14.470;2024-03-23T09:38:11;7.72;;;5.07;;
86611;SDS011;77290;50.078;14.470;2024-03-23T09:40:40;6.38;;;4.20;;
86611;SDS011;77290;50.078;14.470;2024-03-23T09:43:07;4.70;;;3.88;;
86611;SDS011;77290;50.078;14.470;2024-03-23T09:45:35;5.40;;;3.40;;
86611;SDS011;77290;50.078;14.470;2024-03-23T09:48:04;5.38;;;3.60;;
86611;SDS011;77290;50.078;14.470;2024-03-23T09:50:34;4.53;;;3.25;;
86611;SDS011;77290;50.078;14.470;2024-03-23T09:53:01;5.90;;;4.03;;
86611;SDS011;77290;50.078;14.470;2024-03-23T09:55:29;4.75;;;3.90;;
86611;SDS011;77290;50.078;14.470;2024-03-23T09:57:54;4.93;;;3.83;;
86611;SDS011;77290;50.078;14.470;2024-03-23T10:00:20;4.68;;;3.78;;
86611;SDS011;77290;50.078;14.470;2024-03-23T10:02:46;6.40;;;4.00;;
86611;SDS011;77290;50.078;14.470;2024-03-23T10:05:21;5.22;;;4.13;;
86611;SDS011;77290;50.078;14.470;2024-03-23T10:07:51;4.78;;;3.72;;
86611;SDS011;77290;50.078;14.470;2024-03-23T10:10:16;4.15;;;3.55;;
86611;SDS011;77290;50.078;14.470;2024-03-23T10:12:46;5.07;;;4.10;;
86611;SDS011;77290;50.078;14.470;2024-03-23T10:15:19;5.18;;;4.03;;
86611;SDS011;77290;50.078;14.470;2024-03-23T10:17:46;5.20;;;4.03;;
86611;SDS011;77290;50.078;14.470;2024-03-23T10:20:13;6.13;;;4.30;;
86611;SDS011;77290;50.078;14.470;2024-03-23T10:22:41;6.32;;;4.40;;
86611;SDS011;77290;50.078;14.470;2024-03-23T10:25:11;5.88;;;4.30;;
86611;SDS011;77290;50.078;14.470;2024-03-23T10:27:37;7.78;;;4.30;;
86611;SDS011;77290;50.078;14.470;2024-03-23T10:30:12;6.45;;;4.40;;
86611;SDS011;77290;50.078;14.470;2024-03-23T10:32:45;6.05;;;4.25;;
86611;SDS011;77290;50.078;14.470;2024-03-23T10:35:18;5.57;;;4.60;;
86611;SDS011;77290;50.078;14.470;2024-03-23T10:37:47;7.10;;;4.88;;
86611;SDS011;77290;50.078;14.470;2024-03-23T10:40:16;6.72;;;4.82;;
86611;SDS011;77290;50.078;14.470;2024-03-23T10:42:43;5.85;;;4.30;;
86611;SDS011;77290;50.078;14.470;2024-03-23T10:45:11;6.32;;;4.38;;
86611;SDS011;77290;50.078;14.470;2024-03-23T10:47:39;4.78;;;3.90;;
86611;SDS011;77290;50.078;14.470;2024-03-23T10:50:06;8.18;;;5.15;;
86611;SDS011;77290;50.078;14.470;2024-03-23T10:52:35;7.60;;;4.63;;
86611;SDS011;77290;50.078;14.470;2024-03-23T10:55:02;5.95;;;4.00;;
86611;SDS011;77290;50.078;14.470;2024-03-23T10:57:34;5.65;;;4.10;;
86611;SDS011;77290;50.078;14.470;2024-03-23T11:00:09;6.80;;;4.60;;
86611;SDS011;77290;50.078;14.470;2024-03-23T11:02:35;6.78;;;4.43;;
86611;SDS011;77290;50.078;14.470;2024-03-23T11:05:48;6.50;;;4.43;;
86611;SDS011;77290;50.078;14.470;2024-03-23T11:07:52;8.07;;;4.45;;
86611;SDS011;77290;50.078;14.470;2024-03-23T11:10:25;7.15;;;4.57;;
86611;SDS011;77290;50.078;14.470;2024-03-23T11:12:57;6.45;;;4.25;;
86611;SDS011;77290;50.078;14.470;2024-03-23T11:15:25;7.68;;;4.53;;
86611;SDS011;77290;50.078;14.470;2024-03-23T11:18:06;4.47;;;3.55;;
86611;SDS011;77290;50.078;14.470;2024-03-23T11:20:37;4.78;;;3.90;;
86611;SDS011;77290;50.078;14.470;2024-03-23T11:23:04;5.30;;;3.95;;
86611;SDS011;77290;50.078;14.470;2024-03-23T11:25:30;5.65;;;3.85;;
86611;SDS011;77290;50.078;14.470;2024-03-23T11:28:10;5.75;;;3.95;;
86611;SDS011;77290;50.078;14.470;2024-03-23T11:33:03;3.90;;;3.08;;
86611;SDS011;77290;50.078;14.470;2024-03-23T11:35:39;4.45;;;2.90;;
86611;SDS011;77290;50.078;14.470;2024-03-23T11:40:38;3.83;;;3.25;;
86611;SDS011;77290;50.078;14.470;2024-03-23T11:43:08;4.85;;;3.25;;
86611;SDS011;77290;50.078;14.470;2024-03-23T11:45:37;3.70;;;2.90;;
86611;SDS011;77290;50.078;14.470;2024-03-23T11:48:16;4.78;;;2.80;;
86611;SDS011;77290;50.078;14.470;2024-03-23T11:50:45;6.22;;;3.03;;
86611;SDS011;77290;50.078;14.470;2024-03-23T11:58:10;4.63;;;2.97;;
86611;SDS011;77290;50.078;14.470;2024-03-23T12:00:39;5.68;;;2.58;;
86611;SDS011;77290;50.078;14.470;2024-03-23T12:03:05;4.00;;;2.30;;
86611;SDS011;77290;50.078;14.470;2024-03-23T12:05:33;3.17;;;2.30;;
86611;SDS011;77290;50.078;14.470;2024-03-23T12:08:15;3.67;;;2.30;;
86611;SDS011;77290;50.078;14.470;2024-03-23T12:13:33;5.15;;;2.22;;
86611;SDS011;77290;50.078;14.470;2024-03-23T12:18:46;3.78;;;1.55;;
86611;SDS011;77290;50.078;14.470;2024-03-23T12:21:14;2.97;;;1.30;;
86611;SDS011;77290;50.078;14.470;2024-03-23T12:23:40;3.00;;;1.40;;
86611;SDS011;77290;50.078;14.470;2024-03-23T12:26:13;1.77;;;1.50;;
86611;SDS011;77290;50.078;14.470;2024-03-23T12:28:39;1.73;;;1.50;;
86611;SDS011;77290;50.078;14.470;2024-03-23T12:31:07;1.42;;;1.17;;
86611;SDS011;77290;50.078;14.470;2024-03-23T12:33:32;1.17;;;1.00;;
86611;SDS011;77290;50.078;14.470;2024-03-23T12:36:01;4.53;;;0.95;;
86611;SDS011;77290;50.078;14.470;2024-03-23T12:38:26;2.05;;;1.17;;
86611;SDS011;77290;50.078;14.470;2024-03-23T12:40:51;2.60;;;1.13;;
86611;SDS011;77290;50.078;14.470;2024-03-23T12:43:20;3.33;;;1.10;;
86611;SDS011;77290;50.078;14.470;2024-03-23T12:45:51;1.42;;;0.85;;
86611;SDS011;77290;50.078;14.470;2024-03-23T12:48:16;1.20;;;1.00;;
86611;SDS011;77290;50.078;14.470;2024-03-23T12:50:42;1.33;;;0.90;;
86611;SDS011;77290;50.078;14.470;2024-03-23T12:53:07;0.90;;;0.85;;
86611;SDS011;77290;50.078;14.470;2024-03-23T12:55:36;0.95;;;0.80;;
86611;SDS011;77290;50.078;14.470;2024-03-23T12:58:04;1.00;;;0.90;;
86611;SDS011;77290;50.078;14.470;2024-03-23T13:00:29;0.93;;;0.70;;
86611;SDS011;77290;50.078;14.470;2024-03-23T13:02:58;2.58;;;0.80;;
86611;SDS011;77290;50.078;14.470;2024-03-23T13:05:25;1.00;;;0.90;;
86611;SDS011;77290;50.078;14.470;2024-03-23T13:07:51;0.70;;;0.70;;
86611;SDS011;77290;50.078;14.470;2024-03-23T13:10:18;9.77;;;1.00;;
86611;SDS011;77290;50.078;14.470;2024-03-23T13:12:44;0.80;;;0.80;;
86611;SDS011;77290;50.078;14.470;2024-03-23T13:15:12;1.33;;;1.10;;
86611;SDS011;77290;50.078;14.470;2024-03-23T13:17:44;1.20;;;0.90;;
86611;SDS011;77290;50.078;14.470;2024-03-23T13:20:10;3.35;;;0.90;;
86611;SDS011;77290;50.078;14.470;2024-03-23T13:22:39;0.75;;;0.70;;
86611;SDS011;77290;50.078;14.470;2024-03-23T13:25:04;1.10;;;0.80;;
86611;SDS011;77290;50.078;14.470;2024-03-23T13:27:31;1.20;;;0.93;;
86611;SDS011;77290;50.078;14.470;2024-03-23T13:29:58;1.33;;;0.80;;
86611;SDS011;77290;50.078;14.470;2024-03-23T13:32:24;1.92;;;0.85;;
86611;SDS011;77290;50.078;14.470;2024-03-23T13:34:49;1.27;;;0.85;;
86611;SDS011;77290;50.078;14.470;2024-03-23T13:37:15;0.60;;;0.60;;
86611;SDS011;77290;50.078;14.470;2024-03-23T13:39:41;0.80;;;0.77;;
86611;SDS011;77290;50.078;14.470;2024-03-23T13:42:09;1.35;;;0.68;;
86611;SDS011;77290;50.078;14.470;2024-03-23T13:44:37;1.77;;;0.60;;
86611;SDS011;77290;50.078;14.470;2024-03-23T13:47:03;1.00;;;0.82;;
86611;SDS011;77290;50.078;14.470;2024-03-23T13:49:33;1.00;;;0.80;;
86611;SDS011;77290;50.078;14.470;2024-03-23T13:51:59;0.93;;;0.82;;
86611;SDS011;77290;50.078;14.470;2024-03-23T13:54:27;1.30;;;0.80;;
86611;SDS011;77290;50.078;14.470;2024-03-23T13:56:56;1.38;;;0.70;;
86611;SDS011;77290;50.078;14.470;2024-03-23T13:59:22;0.60;;;0.60;;
86611;SDS011;77290;50.078;14.470;2024-03-23T14:01:53;1.80;;;0.70;;
86611;SDS011;77290;50.078;14.470;2024-03-23T14:04:18;1.73;;;0.70;;
86611;SDS011;77290;50.078;14.470;2024-03-23T14:06:50;2.60;;;0.85;;
86611;SDS011;77290;50.078;14.470;2024-03-23T14:09:20;0.80;;;0.70;;
86611;SDS011;77290;50.078;14.470;2024-03-23T14:11:50;1.05;;;0.80;;
86611;SDS011;77290;50.078;14.470;2024-03-23T14:14:16;0.82;;;0.70;;
86611;SDS011;77290;50.078;14.470;2024-03-23T14:16:46;1.02;;;0.80;;
86611;SDS011;77290;50.078;14.470;2024-03-23T14:19:12;1.08;;;0.90;;
86611;SDS011;77290;50.078;14.470;2024-03-23T14:21:37;0.90;;;0.80;;
86611;SDS011;77290;50.078;14.470;2024-03-23T14:24:03;1.20;;;1.00;;
86611;SDS011;77290;50.078;14.470;2024-03-23T14:26:29;1.20;;;0.90;;
86611;SDS011;77290;50.078;14.470;2024-03-23T14:28:57;0.95;;;0.85;;
86611;SDS011;77290;50.078;14.470;2024-03-23T14:31:27;1.15;;;1.00;;
86611;SDS011;77290;50.078;14.470;2024-03-23T14:33:55;0.90;;;0.80;;
86611;SDS011;77290;50.078;14.470;2024-03-23T14:36:21;1.00;;;0.70;;
86611;SDS011;77290;50.078;14.470;2024-03-23T14:38:49;1.23;;;0.82;;
86611;SDS011;77290;50.078;14.470;2024-03-23T14:41:15;0.90;;;0.80;;
86611;SDS011;77290;50.078;14.470;2024-03-23T14:43:44;1.73;;;0.90;;
86611;SDS011;77290;50.078;14.470;2024-03-23T14:46:17;1.15;;;0.90;;
86611;SDS011;77290;50.078;14.470;2024-03-23T14:48:43;1.35;;;0.88;;
86611;SDS011;77290;50.078;14.470;2024-03-23T14:51:09;1.05;;;0.90;;
86611;SDS011;77290;50.078;14.470;2024-03-23T14:53:36;1.10;;;1.00;;
86611;SDS011;77290;50.078;14.470;2024-03-23T14:56:05;2.03;;;1.10;;
86611;SDS011;77290;50.078;14.470;2024-03-23T14:58:31;1.67;;;1.00;;
86611;SDS011;77290;50.078;14.470;2024-03-23T15:01:03;1.50;;;0.90;;
86611;SDS011;77290;50.078;14.470;2024-03-23T15:03:31;2.80;;;1.05;;
86611;SDS011;77290;50.078;14.470;2024-03-23T15:05:57;2.00;;;1.30;;
86611;SDS011;77290;50.078;14.470;2024-03-23T15:08:26;1.98;;;1.10;;
86611;SDS011;77290;50.078;14.470;2024-03-23T15:10:53;3.42;;;1.45;;
86611;SDS011;77290;50.078;14.470;2024-03-23T15:13:18;1.77;;;1.20;;
86611;SDS011;77290;50.078;14.470;2024-03-23T15:15:44;1.60;;;1.15;;
86611;SDS011;77290;50.078;14.470;2024-03-23T15:18:16;3.00;;;1.25;;
86611;SDS011;77290;50.078;14.470;2024-03-23T15:20:53;1.70;;;1.17;;
86611;SDS011;77290;50.078;14.470;2024-03-23T15:23:26;1.65;;;1.38;;
86611;SDS011;77290;50.078;14.470;2024-03-23T15:26:01;2.28;;;1.25;;
86611;SDS011;77290;50.078;14.470;2024-03-23T15:28:31;3.83;;;1.42;;
86611;SDS011;77290;50.078;14.470;2024-03-23T15:31:17;2.17;;;1.33;;
86611;SDS011;77290;50.078;14.470;2024-03-23T15:33:43;2.78;;;1.33;;
86611;SDS011;77290;50.078;14.470;2024-03-23T15:36:11;2.80;;;1.42;;
86611;SDS011;77290;50.078;14.470;2024-03-23T15:38:37;1.60;;;1.10;;
86611;SDS011;77290;50.078;14.470;2024-03-23T15:41:03;2.10;;;1.40;;
86611;SDS011;77290;50.078;14.470;2024-03-23T15:43:29;2.47;;;1.67;;
86611;SDS011;77290;50.078;14.470;2024-03-23T15:45:56;2.75;;;1.30;;